Portada
METAR-TAF:

METAR-TAF

Aeroports :

Baden-Baden, Alemanya

latitud: 48-46-43N, longitud: 008-04-47E, altitud: 124 m

Observació

L'informe es va fer fa 25 minuts, a les 15:50 UTC
Vent 3 kt del Sud
Temperatura 3°C
Humitat 81%
Pressió 1025 hPa
Visibilitat 10 km o més
sense núvols per sota de 1500 mi sense presència de cumulonimbus.

METAR: EDSB 101550Z 19003KT CAVOK 03/00 Q1025

Hora: 17:15 (16:15 UTC)

Pronòstic

L'informe es va fer fa 5 hores i 15 minuts, a les 11:00 UTC
Pronòstic vàlid del 10 a les 12 UTC al 11 a les 12 UTC
Vent 6 kt del Sud/Sud-Oest
Visibilitat 10 km o més
Escasses núvols a una alçada de 1500 ft
Evolucionant progressivament
l' 10 a les 14 UTC al 10 a les 17 UTC
Vent 3 kt amb direcció variable

TAF: EDSB 101100Z 1012/1112 21006KT 9999 FEW015 BECMG 1014/1017 VRB03KT

Observacions i pronòstics meteorològics de més de 4000 aeroports (METAR i TAF).

Les estacions disponibles són els punts grocs i vermells al mapa.

Posi el ratolí al punt desitjat per veure el nom de l'estació.

Feu clic per veure les observacions i els pronòstics meteorològics.

Per canviar el mapa: feu clic els botons verds amb una creu de color negre per apropar; al botó verd amb un guió per allunyar la imatge; o en les fletxes verdes per a mapes adjacents.


METAR-TAF: